createdAt,value
2017-08-11T00:00:20.296Z,0
2017-08-11T00:01:32.890Z,0
2017-08-11T00:02:45.578Z,0
2017-08-11T00:03:58.144Z,0
2017-08-11T00:05:10.984Z,0
2017-08-11T00:06:23.293Z,0
2017-08-11T00:07:35.820Z,0
2017-08-11T00:08:47.815Z,0
2017-08-11T00:10:00.403Z,0
2017-08-11T00:11:12.681Z,0
2017-08-11T00:12:25.320Z,0
2017-08-11T00:13:37.536Z,0
2017-08-11T00:14:49.196Z,0
2017-08-11T00:16:01.783Z,0
2017-08-11T00:17:14.429Z,0
2017-08-11T00:18:26.956Z,0
2017-08-11T00:19:38.927Z,0
2017-08-11T00:20:51.242Z,0
2017-08-11T00:22:03.821Z,0
2017-08-11T00:23:16.148Z,0
2017-08-11T00:24:28.768Z,0
2017-08-11T00:25:41.040Z,0
2017-08-11T00:26:53.360Z,0
2017-08-11T00:28:05.656Z,0
2017-08-11T00:29:18.202Z,0
2017-08-11T00:30:30.504Z,0
2017-08-11T00:31:43.141Z,0
2017-08-11T00:32:55.746Z,0
2017-08-11T00:34:08.384Z,0
2017-08-11T00:35:21.011Z,0
2017-08-11T00:36:33.583Z,0
2017-08-11T00:37:46.224Z,0
2017-08-11T00:38:58.824Z,0
2017-08-11T00:40:11.109Z,0
2017-08-11T00:41:23.696Z,0
2017-08-11T00:42:35.674Z,0
2017-08-11T00:43:48.479Z,0
2017-08-11T00:45:01.075Z,0
2017-08-11T00:46:13.405Z,0
2017-08-11T00:47:25.353Z,0
2017-08-11T00:48:37.924Z,0
2017-08-11T00:49:50.476Z,0
2017-08-11T00:51:02.734Z,0
2017-08-11T00:52:15.320Z,0
2017-08-11T00:53:27.894Z,0
2017-08-11T00:54:40.167Z,0
2017-08-11T00:55:52.741Z,0
2017-08-11T00:57:05.030Z,0
2017-08-11T00:58:17.354Z,0
2017-08-11T00:59:29.969Z,0
2017-08-11T01:00:42.528Z,0
2017-08-11T01:01:55.089Z,0
2017-08-11T01:03:07.397Z,0
2017-08-11T01:04:19.952Z,0
2017-08-11T01:05:32.748Z,0
2017-08-11T01:06:44.696Z,0
2017-08-11T01:07:56.965Z,0
2017-08-11T01:09:09.542Z,0
2017-08-11T01:10:21.536Z,0
2017-08-11T01:11:34.154Z,0
2017-08-11T01:12:46.730Z,0
2017-08-11T01:13:58.969Z,0
2017-08-11T01:15:11.542Z,0
2017-08-11T01:16:24.104Z,0
2017-08-11T01:17:36.682Z,0
2017-08-11T01:18:49.029Z,0
2017-08-11T01:20:01.636Z,0
2017-08-11T01:21:14.476Z,0
2017-08-11T01:22:27.123Z,0
2017-08-11T01:23:39.380Z,0
2017-08-11T01:24:52.018Z,0
2017-08-11T01:26:04.647Z,0
2017-08-11T01:27:17.232Z,0
2017-08-11T01:28:29.856Z,0
2017-08-11T01:29:42.142Z,0
2017-08-11T01:30:54.744Z,0
2017-08-11T01:32:07.337Z,0
2017-08-11T01:33:20.009Z,0
2017-08-11T01:34:32.574Z,0
2017-08-11T01:35:44.522Z,0
2017-08-11T01:36:56.779Z,0
2017-08-11T01:38:09.388Z,0
2017-08-11T01:39:22.015Z,0
2017-08-11T01:40:34.317Z,0
2017-08-11T01:41:46.906Z,0
2017-08-11T01:42:59.510Z,0
2017-08-11T01:44:12.093Z,0
2017-08-11T01:45:24.662Z,0
2017-08-11T01:46:37.252Z,0
2017-08-11T01:47:49.804Z,0
2017-08-11T01:49:02.117Z,0
2017-08-11T01:50:14.772Z,0
2017-08-11T01:51:27.399Z,0
2017-08-11T01:52:40.040Z,0
2017-08-11T01:53:52.821Z,0
2017-08-11T01:55:04.798Z,0
2017-08-11T01:56:17.383Z,0
2017-08-11T01:57:29.979Z,0
2017-08-11T01:58:41.955Z,0
2017-08-11T01:59:54.540Z,0
2017-08-11T02:01:06.837Z,0
2017-08-11T02:02:19.361Z,0
2017-08-11T02:03:31.988Z,0
2017-08-11T02:04:44.288Z,0
2017-08-11T02:05:56.905Z,0
2017-08-11T02:07:09.531Z,0
2017-08-11T02:08:22.165Z,0
2017-08-11T02:09:34.113Z,0
2017-08-11T02:10:46.729Z,0
2017-08-11T02:11:59.306Z,0
2017-08-11T02:13:11.918Z,0
2017-08-11T02:14:24.478Z,0
2017-08-11T02:15:36.786Z,0
2017-08-11T02:16:49.325Z,0
2017-08-11T02:18:01.907Z,0
2017-08-11T02:19:14.477Z,0
2017-08-11T02:20:27.044Z,0
2017-08-11T02:21:39.544Z,0
2017-08-11T02:22:52.136Z,0
2017-08-11T02:24:04.782Z,0
2017-08-11T02:25:16.757Z,0
2017-08-11T02:26:29.085Z,0
2017-08-11T02:27:41.372Z,0
2017-08-11T02:28:53.942Z,0
2017-08-11T02:30:06.486Z,0
2017-08-11T02:31:18.800Z,0
2017-08-11T02:32:31.372Z,0
2017-08-11T02:33:43.625Z,0
2017-08-11T02:34:56.224Z,0
2017-08-11T02:36:08.835Z,0
2017-08-11T02:37:21.680Z,0
2017-08-11T02:38:33.959Z,0
2017-08-11T02:39:46.304Z,0
2017-08-11T02:40:58.529Z,0
2017-08-11T02:42:10.829Z,0
2017-08-11T02:43:23.110Z,0
2017-08-11T02:44:35.419Z,0
2017-08-11T02:45:47.760Z,0
2017-08-11T02:47:00.362Z,0
2017-08-11T02:48:12.926Z,0
2017-08-11T02:49:24.872Z,0
2017-08-11T02:50:37.142Z,0
2017-08-11T02:51:49.075Z,0
2017-08-11T02:53:01.317Z,0
2017-08-11T02:54:13.632Z,0
2017-08-11T02:55:25.950Z,0
2017-08-11T02:56:38.639Z,0
2017-08-11T02:57:51.207Z,0
2017-08-11T02:59:03.775Z,0
2017-08-11T03:00:16.440Z,0
2017-08-11T03:01:29.007Z,0
2017-08-11T03:02:41.605Z,0
2017-08-11T03:03:53.873Z,0
2017-08-11T03:05:06.469Z,0
2017-08-11T03:06:19.122Z,0
2017-08-11T03:07:31.730Z,0
2017-08-11T03:08:44.357Z,0
2017-08-11T03:09:56.552Z,0
2017-08-11T03:11:08.808Z,0
2017-08-11T03:12:20.821Z,0
2017-08-11T03:13:33.389Z,0
2017-08-11T03:14:45.997Z,0
2017-08-11T03:15:58.639Z,0
2017-08-11T03:17:10.895Z,0
2017-08-11T03:18:22.877Z,0
2017-08-11T03:19:34.897Z,0
2017-08-11T03:20:47.158Z,0
2017-08-11T03:21:59.437Z,4
2017-08-11T03:23:12.019Z,4
2017-08-11T03:24:24.646Z,4
2017-08-11T03:25:36.900Z,4
2017-08-11T03:26:49.133Z,4
2017-08-11T03:28:01.693Z,8
2017-08-11T03:29:13.974Z,8
2017-08-11T03:30:26.620Z,12
2017-08-11T03:31:39.253Z,12
2017-08-11T03:32:51.504Z,16
2017-08-11T03:34:04.120Z,16
2017-08-11T03:35:16.422Z,16
2017-08-11T03:36:29.066Z,16
2017-08-11T03:37:41.597Z,20
2017-08-11T03:38:53.922Z,28
2017-08-11T03:40:06.201Z,24
2017-08-11T03:41:18.171Z,24
2017-08-11T03:42:30.128Z,32
2017-08-11T03:43:42.771Z,32
2017-08-11T03:44:55.395Z,36
2017-08-11T03:46:07.712Z,52
2017-08-11T03:47:20.006Z,60
2017-08-11T03:48:32.282Z,72
2017-08-11T03:49:44.903Z,72
2017-08-11T03:50:57.220Z,68
2017-08-11T03:52:09.499Z,80
2017-08-11T03:53:22.141Z,88
2017-08-11T03:54:34.725Z,108
2017-08-11T03:55:47.339Z,124
2017-08-11T03:56:59.975Z,164
2017-08-11T03:58:11.957Z,160
2017-08-11T03:59:24.484Z,136
2017-08-11T04:00:36.781Z,148
2017-08-11T04:01:49.408Z,180
2017-08-11T04:03:02.008Z,188
2017-08-11T04:04:14.651Z,176
2017-08-11T04:05:26.940Z,212
2017-08-11T04:06:39.211Z,208
2017-08-11T04:07:51.822Z,180
2017-08-11T04:09:04.088Z,156
2017-08-11T04:10:16.108Z,188
2017-08-11T04:11:28.655Z,212
2017-08-11T04:12:41.225Z,224
2017-08-11T04:13:53.848Z,244
2017-08-11T04:15:06.468Z,252
2017-08-11T04:16:18.757Z,268
2017-08-11T04:17:31.435Z,272
2017-08-11T04:18:44.033Z,284
2017-08-11T04:19:56.623Z,308
2017-08-11T04:21:08.611Z,300
2017-08-11T04:22:21.175Z,332
2017-08-11T04:23:33.739Z,396
2017-08-11T04:24:46.000Z,400
2017-08-11T04:25:58.493Z,492
2017-08-11T04:27:11.071Z,472
2017-08-11T04:28:23.755Z,500
2017-08-11T04:29:36.349Z,588
2017-08-11T04:30:48.935Z,640
2017-08-11T04:32:01.464Z,668
2017-08-11T04:33:14.063Z,644
2017-08-11T04:34:26.352Z,684
2017-08-11T04:35:38.979Z,672
2017-08-11T04:36:51.962Z,692
2017-08-11T04:38:04.218Z,724
2017-08-11T04:39:16.459Z,768
2017-08-11T04:40:28.753Z,876
2017-08-11T04:41:40.995Z,852
2017-08-11T04:42:53.573Z,744
2017-08-11T04:44:06.162Z,736
2017-08-11T04:45:18.166Z,760
2017-08-11T04:46:30.838Z,820
2017-08-11T04:47:43.100Z,796
2017-08-11T04:48:55.601Z,808
2017-08-11T04:50:08.175Z,836
2017-08-11T04:51:20.468Z,840
2017-08-11T04:52:33.062Z,864
2017-08-11T04:53:45.574Z,860
2017-08-11T04:54:57.914Z,888
2017-08-11T04:56:10.166Z,888
2017-08-11T04:57:22.462Z,852
2017-08-11T04:58:34.736Z,832
2017-08-11T04:59:47.312Z,808
2017-08-11T05:00:59.580Z,808
2017-08-11T05:02:11.851Z,744
2017-08-11T05:03:24.395Z,704
2017-08-11T05:04:37.000Z,636
2017-08-11T05:05:49.667Z,580
2017-08-11T05:07:01.966Z,528
2017-08-11T05:08:13.992Z,548
2017-08-11T05:09:26.365Z,540
2017-08-11T05:10:38.969Z,496
2017-08-11T05:11:51.496Z,444
2017-08-11T05:13:04.071Z,404
2017-08-11T05:14:16.625Z,392
2017-08-11T05:15:29.234Z,428
2017-08-11T05:16:41.528Z,492
2017-08-11T05:17:54.150Z,556
2017-08-11T05:19:06.716Z,632
2017-08-11T05:20:19.286Z,688
2017-08-11T05:21:31.548Z,756
2017-08-11T05:22:43.837Z,876
2017-08-11T05:23:56.076Z,936
2017-08-11T05:25:08.625Z,1064
2017-08-11T05:26:20.897Z,1260
2017-08-11T05:27:33.236Z,1564
2017-08-11T05:28:45.606Z,1788
2017-08-11T05:29:58.129Z,1672
2017-08-11T05:31:10.417Z,1776
2017-08-11T05:32:22.650Z,1920
2017-08-11T05:33:34.643Z,2132
2017-08-11T05:34:46.863Z,1876
2017-08-11T05:35:59.166Z,1736
2017-08-11T05:37:11.803Z,1864
2017-08-11T05:38:24.149Z,1984
2017-08-11T05:39:36.482Z,2312
2017-08-11T05:40:49.090Z,2816
2017-08-11T05:42:01.418Z,3016
2017-08-11T05:43:13.083Z,2956
2017-08-11T05:44:25.716Z,2584
2017-08-11T05:45:38.337Z,2904
2017-08-11T05:46:50.628Z,3408
2017-08-11T05:48:03.222Z,3392
2017-08-11T05:49:15.219Z,3376
2017-08-11T05:50:27.532Z,2912
2017-08-11T05:51:39.806Z,2924
2017-08-11T05:52:52.378Z,3000
2017-08-11T05:54:04.904Z,3080
2017-08-11T05:55:17.250Z,3248
2017-08-11T05:56:29.574Z,3200
2017-08-11T05:57:42.177Z,3440
2017-08-11T05:58:54.736Z,3480
2017-08-11T06:00:07.362Z,3448
2017-08-11T06:01:19.931Z,3424
2017-08-11T06:02:32.544Z,3252
2017-08-11T06:03:45.113Z,3396
2017-08-11T06:04:57.441Z,3060
2017-08-11T06:06:10.037Z,3092
2017-08-11T06:07:22.560Z,3108
2017-08-11T06:08:35.149Z,2804
2017-08-11T06:09:47.419Z,2644
2017-08-11T06:10:59.364Z,2672
2017-08-11T06:12:11.602Z,2772
2017-08-11T06:13:23.659Z,3208
2017-08-11T06:14:36.207Z,3292
2017-08-11T06:15:48.481Z,3396
2017-08-11T06:17:01.066Z,3700
2017-08-11T06:18:13.372Z,3576
2017-08-11T06:19:25.678Z,3716
2017-08-11T06:20:38.257Z,4184
2017-08-11T06:21:50.859Z,4116
2017-08-11T06:23:03.409Z,4352
2017-08-11T06:24:15.762Z,4336
2017-08-11T06:25:28.339Z,4480
2017-08-11T06:26:40.928Z,4628
2017-08-11T06:27:52.633Z,4464
2017-08-11T06:29:05.230Z,4352
2017-08-11T06:30:17.452Z,4684
2017-08-11T06:31:29.751Z,4836
2017-08-11T06:32:42.033Z,4956
2017-08-11T06:33:54.318Z,5132
2017-08-11T06:35:06.934Z,5676
2017-08-11T06:36:19.229Z,5636
2017-08-11T06:37:31.798Z,5400
2017-08-11T06:38:43.744Z,5068
2017-08-11T06:39:56.344Z,5452
2017-08-11T06:41:08.912Z,5804
2017-08-11T06:42:21.420Z,5620
2017-08-11T06:43:34.015Z,5272
2017-08-11T06:44:46.601Z,5252
2017-08-11T06:45:58.557Z,5140
2017-08-11T06:47:10.820Z,4856
2017-08-11T06:48:23.063Z,4300
2017-08-11T06:49:35.360Z,3844
2017-08-11T06:50:47.658Z,3772
2017-08-11T06:52:00.012Z,3668
2017-08-11T06:53:12.272Z,3776
2017-08-11T06:54:24.860Z,3792
2017-08-11T06:55:37.449Z,3816
2017-08-11T06:56:50.091Z,4668
2017-08-11T06:58:02.401Z,4800
2017-08-11T06:59:15.001Z,4404
2017-08-11T07:00:27.555Z,5148
2017-08-11T07:01:40.167Z,4944
2017-08-11T07:02:52.417Z,5528
2017-08-11T07:04:05.076Z,7024
2017-08-11T07:05:17.331Z,8900
2017-08-11T07:06:29.928Z,8624
2017-08-11T07:07:42.197Z,8864
2017-08-11T07:08:54.745Z,8888
2017-08-11T07:10:07.039Z,10132
2017-08-11T07:11:19.566Z,11356
2017-08-11T07:12:31.857Z,11936
2017-08-11T07:13:43.777Z,12920
2017-08-11T07:14:56.366Z,12812
2017-08-11T07:16:08.619Z,11640
2017-08-11T07:17:21.166Z,12752
2017-08-11T07:18:33.785Z,11812
2017-08-11T07:19:46.606Z,10536
2017-08-11T07:20:59.195Z,10748
2017-08-11T07:22:10.855Z,11808
2017-08-11T07:23:23.456Z,10692
2017-08-11T07:24:36.120Z,9184
2017-08-11T07:25:48.097Z,8968
2017-08-11T07:27:00.663Z,8820
2017-08-11T07:28:12.926Z,9860
2017-08-11T07:29:25.176Z,9860
2017-08-11T07:30:37.848Z,9644
2017-08-11T07:31:50.152Z,8732
2017-08-11T07:33:02.412Z,8456
2017-08-11T07:34:14.962Z,9180
2017-08-11T07:35:27.579Z,9224
2017-08-11T07:36:40.150Z,7732
2017-08-11T07:37:52.428Z,7740
2017-08-11T07:39:04.644Z,7488
2017-08-11T07:40:16.599Z,6780
2017-08-11T07:41:28.901Z,7596
2017-08-11T07:42:40.279Z,9544
2017-08-11T07:43:52.241Z,13644
2017-08-11T07:45:04.855Z,18560
2017-08-11T07:46:17.479Z,22816
2017-08-11T07:47:29.792Z,19680
2017-08-11T07:48:42.359Z,18784
2017-08-11T07:49:54.903Z,14788
2017-08-11T07:51:07.531Z,15504
2017-08-11T07:52:19.813Z,16736
2017-08-11T07:53:32.412Z,15556
2017-08-11T07:54:44.985Z,17536
2017-08-11T07:55:57.208Z,16776
2017-08-11T07:57:09.482Z,15628
2017-08-11T07:58:21.750Z,13980
2017-08-11T07:59:33.747Z,11592
2017-08-11T08:00:46.029Z,9144
2017-08-11T08:01:58.621Z,10816
2017-08-11T08:03:11.484Z,12320
2017-08-11T08:04:23.787Z,13812
2017-08-11T08:05:36.426Z,10576
2017-08-11T08:06:49.033Z,8580
2017-08-11T08:08:01.629Z,8100
2017-08-11T08:09:14.265Z,8056
2017-08-11T08:10:26.549Z,6640
2017-08-11T08:11:38.838Z,7192
2017-08-11T08:12:51.393Z,6816
2017-08-11T08:14:03.426Z,5112
2017-08-11T08:15:15.775Z,6840
2017-08-11T08:16:28.389Z,8084
2017-08-11T08:17:41.058Z,7156
2017-08-11T08:18:53.637Z,6252
2017-08-11T08:20:05.933Z,5692
2017-08-11T08:21:18.235Z,5956
2017-08-11T08:22:30.301Z,5128
2017-08-11T08:23:42.566Z,5544
2017-08-11T08:24:55.137Z,6152
2017-08-11T08:26:07.419Z,5272
2017-08-11T08:27:20.039Z,4852
2017-08-11T08:28:32.367Z,6248
2017-08-11T08:29:44.663Z,6344
2017-08-11T08:30:57.266Z,6260
2017-08-11T08:32:09.592Z,6244
2017-08-11T08:33:22.213Z,6816
2017-08-11T08:34:34.782Z,6776
2017-08-11T08:35:47.427Z,6780
2017-08-11T08:36:59.721Z,5812
2017-08-11T08:38:12.351Z,5052
2017-08-11T08:39:23.998Z,4496
2017-08-11T08:40:36.640Z,4356
2017-08-11T08:41:49.253Z,4308
2017-08-11T08:43:01.551Z,4396
2017-08-11T08:44:14.151Z,4700
2017-08-11T08:45:26.170Z,6032
2017-08-11T08:46:38.463Z,7384
2017-08-11T08:47:51.060Z,9984
2017-08-11T08:49:03.340Z,11196
2017-08-11T08:50:15.936Z,12376
2017-08-11T08:51:28.496Z,13172
2017-08-11T08:52:40.743Z,16140
2017-08-11T08:53:53.043Z,16800
2017-08-11T08:55:05.315Z,15948
2017-08-11T08:56:17.980Z,15288
2017-08-11T08:57:29.968Z,15460
2017-08-11T08:58:41.665Z,14800
2017-08-11T08:59:53.969Z,12312
2017-08-11T09:01:06.190Z,12156
2017-08-11T09:02:18.441Z,17072
2017-08-11T09:03:31.109Z,17508
2017-08-11T09:04:43.732Z,14636
2017-08-11T09:05:55.997Z,13768
2017-08-11T09:07:07.947Z,13904
2017-08-11T09:08:20.521Z,11372
2017-08-11T09:09:33.121Z,9136
2017-08-11T09:10:45.755Z,7740
2017-08-11T09:11:57.737Z,7572
2017-08-11T09:13:09.976Z,9608
2017-08-11T09:14:22.205Z,12624
2017-08-11T09:15:34.540Z,14768
2017-08-11T09:16:47.135Z,15252
2017-08-11T09:17:59.082Z,13428
2017-08-11T09:19:11.340Z,8960
2017-08-11T09:20:23.976Z,11272
2017-08-11T09:21:36.550Z,10912
2017-08-11T09:22:49.126Z,9956
2017-08-11T09:24:01.661Z,7032
2017-08-11T09:25:13.895Z,5176
2017-08-11T09:26:26.228Z,5112
2017-08-11T09:27:38.760Z,5688
2017-08-11T09:28:51.052Z,6320
2017-08-11T09:30:03.052Z,6704
2017-08-11T09:31:15.421Z,7028
2017-08-11T09:32:27.693Z,7772
2017-08-11T09:33:40.307Z,8532
2017-08-11T09:34:52.579Z,9048
2017-08-11T09:36:04.570Z,9860
2017-08-11T09:37:16.884Z,9432
2017-08-11T09:38:29.155Z,9716
2017-08-11T09:39:41.716Z,10340
2017-08-11T09:40:54.590Z,9924
2017-08-11T09:42:07.181Z,11612
2017-08-11T09:43:19.774Z,9416
2017-08-11T09:44:32.353Z,8276
2017-08-11T09:45:44.702Z,10040
2017-08-11T09:46:56.970Z,11564
2017-08-11T09:48:09.554Z,11264
2017-08-11T09:49:21.831Z,9580
2017-08-11T09:50:34.475Z,9760
2017-08-11T09:51:46.723Z,8932
2017-08-11T09:52:59.354Z,9596
2017-08-11T09:54:12.012Z,10016
2017-08-11T09:55:24.569Z,9440
2017-08-11T09:56:36.882Z,8044
2017-08-11T09:57:48.822Z,8120
2017-08-11T09:59:00.779Z,8012
2017-08-11T10:00:13.450Z,7408
2017-08-11T10:01:26.046Z,6696
2017-08-11T10:02:38.334Z,7836
2017-08-11T10:03:50.684Z,8456
2017-08-11T10:05:02.665Z,7744
2017-08-11T10:06:15.274Z,9364
2017-08-11T10:07:27.565Z,9420
2017-08-11T10:08:39.528Z,11180
2017-08-11T10:09:51.507Z,10168
2017-08-11T10:11:04.077Z,8380
2017-08-11T10:12:16.317Z,8260
2017-08-11T10:13:28.894Z,7468
2017-08-11T10:14:41.466Z,6416
2017-08-11T10:15:54.041Z,5944
2017-08-11T10:17:06.018Z,6160
2017-08-11T10:18:18.659Z,6576
2017-08-11T10:19:31.286Z,7076
2017-08-11T10:20:43.552Z,8024
2017-08-11T10:21:56.140Z,8796
2017-08-11T10:23:08.737Z,8912
2017-08-11T10:24:21.057Z,9632
2017-08-11T10:25:33.603Z,9264
2017-08-11T10:26:45.878Z,9128
2017-08-11T10:27:58.144Z,8232
2017-08-11T10:29:10.477Z,7308
2017-08-11T10:30:23.119Z,7188
2017-08-11T10:31:35.443Z,7480
2017-08-11T10:32:47.720Z,7988
2017-08-11T10:34:00.361Z,7940
2017-08-11T10:35:12.959Z,8356
2017-08-11T10:36:25.522Z,8412
2017-08-11T10:37:37.816Z,8524
2017-08-11T10:38:50.409Z,8352
2017-08-11T10:40:02.978Z,8300
2017-08-11T10:41:15.303Z,8812
2017-08-11T10:42:27.233Z,9500
2017-08-11T10:43:39.872Z,10360
2017-08-11T10:44:52.123Z,9196
2017-08-11T10:46:04.112Z,9844
2017-08-11T10:47:16.395Z,14296
2017-08-11T10:48:28.749Z,20000
2017-08-11T10:49:41.331Z,18816
2017-08-11T10:50:53.621Z,19392
2017-08-11T10:52:05.599Z,30816
2017-08-11T10:53:18.135Z,45344
2017-08-11T10:54:30.780Z,41984
2017-08-11T10:55:42.752Z,31360
2017-08-11T10:56:55.346Z,30656
2017-08-11T10:58:07.627Z,34304
2017-08-11T10:59:19.563Z,28928
2017-08-11T11:00:31.851Z,19424
2017-08-11T11:01:44.467Z,16176
2017-08-11T11:02:57.075Z,24960
2017-08-11T11:04:09.298Z,19808
2017-08-11T11:05:21.860Z,18400
2017-08-11T11:06:34.445Z,20288
2017-08-11T11:07:46.985Z,19168
2017-08-11T11:08:59.262Z,23840
2017-08-11T11:10:11.584Z,26400
2017-08-11T11:11:23.840Z,27392
2017-08-11T11:12:36.392Z,22272
2017-08-11T11:13:48.325Z,21920
2017-08-11T11:15:00.643Z,24896
2017-08-11T11:16:13.218Z,30976
2017-08-11T11:17:25.536Z,29504
2017-08-11T11:18:38.035Z,34944
2017-08-11T11:19:50.626Z,38560
2017-08-11T11:21:02.852Z,47520
2017-08-11T11:22:15.159Z,48224
2017-08-11T11:23:27.499Z,36960
2017-08-11T11:24:40.040Z,47040
2017-08-11T11:25:52.349Z,57184
2017-08-11T11:27:04.270Z,45760
2017-08-11T11:28:16.540Z,64672
2017-08-11T11:29:28.837Z,51456
2017-08-11T11:30:41.132Z,50496
2017-08-11T11:31:53.675Z,35424
2017-08-11T11:33:05.675Z,22336
2017-08-11T11:34:18.281Z,23072
2017-08-11T11:35:30.622Z,23776
2017-08-11T11:36:43.273Z,23744
2017-08-11T11:37:55.614Z,30592
2017-08-11T11:39:07.946Z,44320
2017-08-11T11:40:20.310Z,38720
2017-08-11T11:41:32.307Z,37344
2017-08-11T11:42:44.928Z,26816
2017-08-11T11:43:57.239Z,28128
2017-08-11T11:45:09.800Z,30272
2017-08-11T11:46:22.061Z,18752
2017-08-11T11:47:34.692Z,23520
2017-08-11T11:48:46.980Z,30240
2017-08-11T11:49:59.274Z,33056
2017-08-11T11:51:11.837Z,36672
2017-08-11T11:52:24.491Z,22368
2017-08-11T11:53:37.083Z,18272
2017-08-11T11:54:49.301Z,23200
2017-08-11T11:56:01.557Z,33760
2017-08-11T11:57:13.203Z,30304
2017-08-11T11:58:25.514Z,25728
2017-08-11T11:59:37.809Z,23744
2017-08-11T12:00:50.015Z,20448
2017-08-11T12:02:02.308Z,18816
2017-08-11T12:03:14.597Z,22560
2017-08-11T12:04:26.924Z,21952
2017-08-11T12:05:39.525Z,19744
2017-08-11T12:06:51.810Z,16516
2017-08-11T12:08:04.416Z,17952
2017-08-11T12:09:16.706Z,18144
2017-08-11T12:10:29.272Z,15272
2017-08-11T12:11:41.279Z,14160
2017-08-11T12:12:53.946Z,15004
2017-08-11T12:14:05.911Z,15700
2017-08-11T12:15:18.231Z,13972
2017-08-11T12:16:30.803Z,16080
2017-08-11T12:17:42.471Z,14132
2017-08-11T12:18:54.785Z,17004
2017-08-11T12:20:07.098Z,19392
2017-08-11T12:21:19.669Z,21792
2017-08-11T12:22:31.919Z,20416
2017-08-11T12:23:44.232Z,16956
2017-08-11T12:24:56.874Z,14208
2017-08-11T12:26:09.244Z,19552
2017-08-11T12:27:21.171Z,19648
2017-08-11T12:28:33.734Z,19776
2017-08-11T12:29:45.718Z,17984
2017-08-11T12:30:57.657Z,16732
2017-08-11T12:32:10.189Z,17156
2017-08-11T12:33:22.146Z,16892
2017-08-11T12:34:34.690Z,16448
2017-08-11T12:35:46.967Z,15272
2017-08-11T12:36:59.233Z,15440
2017-08-11T12:38:11.478Z,16408
2017-08-11T12:39:24.067Z,19488
2017-08-11T12:40:36.662Z,17292
2017-08-11T12:41:48.898Z,17792
2017-08-11T12:43:01.513Z,17792
2017-08-11T12:44:13.789Z,19744
2017-08-11T12:45:26.455Z,20128
2017-08-11T12:46:39.026Z,16668
2017-08-11T12:47:51.371Z,14400
2017-08-11T12:49:04.020Z,15280
2017-08-11T12:50:16.623Z,14112
2017-08-11T12:51:29.284Z,11948
2017-08-11T12:52:41.229Z,10260
2017-08-11T12:53:53.201Z,10932
2017-08-11T12:55:05.488Z,10036
2017-08-11T12:56:17.473Z,8956
2017-08-11T12:57:30.070Z,8100
2017-08-11T12:58:42.636Z,7692
2017-08-11T12:59:55.211Z,7316
2017-08-11T13:01:07.512Z,7184
2017-08-11T13:02:20.126Z,6656
2017-08-11T13:03:32.698Z,6888
2017-08-11T13:04:45.269Z,8064
2017-08-11T13:05:57.938Z,12856
2017-08-11T13:07:10.480Z,19040
2017-08-11T13:08:22.767Z,21312
2017-08-11T13:09:35.025Z,18848
2017-08-11T13:10:47.656Z,17256
2017-08-11T13:11:59.939Z,19584
2017-08-11T13:13:12.517Z,20256
2017-08-11T13:14:25.174Z,17600
2017-08-11T13:15:37.718Z,20928
2017-08-11T13:16:49.949Z,27904
2017-08-11T13:18:02.571Z,28928
2017-08-11T13:19:15.126Z,33440
2017-08-11T13:20:27.167Z,38560
2017-08-11T13:21:39.768Z,37152
2017-08-11T13:22:52.109Z,35840
2017-08-11T13:24:04.766Z,34528
2017-08-11T13:25:16.754Z,31232
2017-08-11T13:26:29.047Z,36896
2017-08-11T13:27:41.618Z,32288
2017-08-11T13:28:53.682Z,57504
2017-08-11T13:30:05.994Z,20512
2017-08-11T13:31:18.527Z,40896
2017-08-11T13:32:30.831Z,22592
2017-08-11T13:33:43.147Z,20192
2017-08-11T13:34:55.503Z,20704
2017-08-11T13:36:07.468Z,24672
2017-08-11T13:37:19.830Z,29760
2017-08-11T13:38:32.386Z,16884
2017-08-11T13:39:44.687Z,17168
2017-08-11T13:40:56.917Z,24768
2017-08-11T13:42:08.888Z,28480
2017-08-11T13:43:21.135Z,31072
2017-08-11T13:44:33.679Z,52320
2017-08-11T13:45:45.967Z,24416
2017-08-11T13:46:58.590Z,21888
2017-08-11T13:48:11.178Z,31456
2017-08-11T13:49:23.781Z,24448
2017-08-11T13:50:36.371Z,20480
2017-08-11T13:51:49.037Z,20000
2017-08-11T13:53:01.301Z,18464
2017-08-11T13:54:13.246Z,20576
2017-08-11T13:55:25.803Z,28832
2017-08-11T13:56:38.439Z,18944
2017-08-11T13:57:50.748Z,17036
2017-08-11T13:59:02.762Z,16552
2017-08-11T14:00:15.026Z,15804
2017-08-11T14:01:27.621Z,16080
2017-08-11T14:02:39.874Z,15344
2017-08-11T14:03:52.453Z,16116
2017-08-11T14:05:05.089Z,14924
2017-08-11T14:06:17.658Z,14544
2017-08-11T14:07:29.938Z,15020
2017-08-11T14:08:42.273Z,13876
2017-08-11T14:09:54.846Z,15892
2017-08-11T14:11:06.840Z,18944
2017-08-11T14:12:19.096Z,21280
2017-08-11T14:13:31.504Z,24768
2017-08-11T14:14:44.094Z,20768
2017-08-11T14:15:56.355Z,21696
2017-08-11T14:17:08.647Z,21888
2017-08-11T14:18:21.201Z,18560
2017-08-11T14:19:33.534Z,18432
2017-08-11T14:20:45.799Z,17116
2017-08-11T14:21:58.383Z,14496
2017-08-11T14:23:10.997Z,12372
2017-08-11T14:24:23.255Z,12780
2017-08-11T14:25:35.907Z,16036
2017-08-11T14:26:48.523Z,18144
2017-08-11T14:28:01.138Z,17920
2017-08-11T14:29:13.739Z,17728
2017-08-11T14:30:26.357Z,18720
2017-08-11T14:31:38.976Z,19904
2017-08-11T14:32:51.295Z,15204
2017-08-11T14:34:04.190Z,11484
2017-08-11T14:35:16.195Z,9276
2017-08-11T14:36:28.839Z,8144
2017-08-11T14:37:41.475Z,7400
2017-08-11T14:38:54.073Z,6680
2017-08-11T14:40:06.401Z,6268
2017-08-11T14:41:18.363Z,6088
2017-08-11T14:42:30.916Z,6004
2017-08-11T14:43:43.255Z,6084
2017-08-11T14:44:54.929Z,6160
2017-08-11T14:46:06.562Z,6216
2017-08-11T14:47:19.119Z,6384
2017-08-11T14:48:31.419Z,6328
2017-08-11T14:49:43.709Z,6024
2017-08-11T14:50:55.953Z,5592
2017-08-11T14:52:07.925Z,5508
2017-08-11T14:53:20.182Z,5700
2017-08-11T14:54:32.870Z,5880
2017-08-11T14:55:45.475Z,6064
2017-08-11T14:56:58.110Z,6564
2017-08-11T14:58:10.434Z,7680
2017-08-11T14:59:22.693Z,9084
2017-08-11T15:00:35.297Z,10420
2017-08-11T15:01:47.867Z,11348
2017-08-11T15:03:00.414Z,11652
2017-08-11T15:04:12.721Z,11708
2017-08-11T15:05:25.316Z,11752
2017-08-11T15:06:37.910Z,11884
2017-08-11T15:07:50.172Z,12184
2017-08-11T15:09:02.775Z,12508
2017-08-11T15:10:15.355Z,12556
2017-08-11T15:11:27.369Z,12756
2017-08-11T15:12:39.410Z,12972
2017-08-11T15:13:51.685Z,13120
2017-08-11T15:15:04.004Z,13196
2017-08-11T15:16:16.271Z,13236
2017-08-11T15:17:28.590Z,13040
2017-08-11T15:18:40.861Z,12424
2017-08-11T15:19:52.782Z,11396
2017-08-11T15:21:05.344Z,10224
2017-08-11T15:22:17.619Z,9160
2017-08-11T15:23:30.148Z,8248
2017-08-11T15:24:42.208Z,7560
2017-08-11T15:25:54.523Z,7056
2017-08-11T15:27:06.781Z,6800
2017-08-11T15:28:19.071Z,6656
2017-08-11T15:29:31.305Z,6496
2017-08-11T15:30:43.894Z,6240
2017-08-11T15:31:55.866Z,5944
2017-08-11T15:33:08.473Z,5676
2017-08-11T15:34:21.094Z,5476
2017-08-11T15:35:33.711Z,5364
2017-08-11T15:36:46.306Z,5320
2017-08-11T15:37:58.648Z,5288
2017-08-11T15:39:11.250Z,5220
2017-08-11T15:40:23.863Z,5244
2017-08-11T15:41:36.170Z,5308
2017-08-11T15:42:48.815Z,5392
2017-08-11T15:44:01.128Z,5412
2017-08-11T15:45:13.766Z,5284
2017-08-11T15:46:26.370Z,5040
2017-08-11T15:47:38.996Z,4808
2017-08-11T15:48:51.341Z,4680
2017-08-11T15:50:03.929Z,4664
2017-08-11T15:51:16.518Z,4684
2017-08-11T15:52:28.787Z,4680
2017-08-11T15:53:41.431Z,4628
2017-08-11T15:54:53.998Z,4512
2017-08-11T15:56:06.545Z,4312
2017-08-11T15:57:18.832Z,4068
2017-08-11T15:58:31.100Z,3900
2017-08-11T15:59:43.371Z,3840
2017-08-11T16:00:55.923Z,3900
2017-08-11T16:02:08.513Z,4020
2017-08-11T16:03:20.215Z,4152
2017-08-11T16:04:32.815Z,4276
2017-08-11T16:05:45.110Z,4388
2017-08-11T16:06:57.707Z,4532
2017-08-11T16:08:09.702Z,4712
2017-08-11T16:09:22.264Z,4880
2017-08-11T16:10:34.560Z,4960
2017-08-11T16:11:47.223Z,4924
2017-08-11T16:12:59.528Z,4732
2017-08-11T16:14:12.205Z,4428
2017-08-11T16:15:24.844Z,4044
2017-08-11T16:16:37.089Z,3708
2017-08-11T16:17:49.678Z,3680
2017-08-11T16:19:02.193Z,4104